Borden, Canada
Current Conditions -  °F | °C
As of 10:00 PM on Thursday 30 Oct 2014 (Local Time) from CYQV Reporting Station
Clear Clear  
Wind Chill: 17°   Ceiling: Unl
Heat Index: 23°   Visibility: 9mi
Dew Point: 19°   Wind: 5mph
Humidity: 86%   Direction: 160°SSE
Pressure: 30.51"   Gusts: NA
Location:  52.4°N, 102.23°W
Report Text: CYQV 310400Z AUTO 16004KT 9SM CLR M05/M07 A3051 RMK SLP365
Loading
Personal Weather Stations






























Interactive Weather Map
Tropical Storm Tracking
New forecast layout! Learn more

10-Day Weather Forecast

Advertisements
Track Severe Weather on mobile